createdAt,value
2022-10-19T00:03:00.045Z,6.20
2022-10-19T00:06:26.197Z,6.57
2022-10-19T00:09:29.667Z,6.10
2022-10-19T00:12:33.113Z,6.40
2022-10-19T00:15:40.495Z,5.82
2022-10-19T00:18:45.431Z,6.32
2022-10-19T00:24:57.990Z,6.50
2022-10-19T00:28:01.563Z,6.97
2022-10-19T00:31:10.956Z,6.85
2022-10-19T00:34:14.143Z,7.75
2022-10-19T00:37:17.419Z,7.85
2022-10-19T00:40:28.457Z,7.72
2022-10-19T00:43:58.866Z,8.23
2022-10-19T00:47:07.965Z,7.53
2022-10-19T00:50:12.500Z,7.63
2022-10-19T00:53:15.844Z,7.38
2022-10-19T00:56:19.274Z,7.15
2022-10-19T00:59:25.171Z,7.20
2022-10-19T01:02:28.385Z,7.35
2022-10-19T01:05:33.392Z,7.82
2022-10-19T01:08:36.701Z,7.30
2022-10-19T01:11:46.021Z,6.47
2022-10-19T01:15:08.751Z,7.07
2022-10-19T01:18:20.918Z,6.82
2022-10-19T01:21:28.881Z,7.00
2022-10-19T01:24:59.748Z,6.50
2022-10-19T01:28:38.387Z,6.68
2022-10-19T01:32:03.049Z,6.07
2022-10-19T01:35:27.360Z,6.25
2022-10-19T01:38:53.837Z,6.22
2022-10-19T01:42:15.322Z,5.97
2022-10-19T01:45:41.659Z,6.30
2022-10-19T01:48:54.524Z,6.00
2022-10-19T01:52:04.800Z,6.35
2022-10-19T01:55:10.924Z,6.18
2022-10-19T01:58:22.810Z,6.50
2022-10-19T02:01:30.216Z,6.70
2022-10-19T02:04:35.459Z,6.60
2022-10-19T02:07:41.418Z,5.95
2022-10-19T02:10:46.717Z,6.63
2022-10-19T02:13:54.713Z,6.00
2022-10-19T02:17:09.302Z,6.32
2022-10-19T02:20:13.772Z,6.73
2022-10-19T02:23:20.583Z,6.68
2022-10-19T02:26:23.828Z,7.35
2022-10-19T02:29:27.681Z,7.60
2022-10-19T02:32:30.946Z,7.35
2022-10-19T02:35:34.780Z,8.27
2022-10-19T02:38:37.989Z,7.55
2022-10-19T02:41:49.303Z,8.05
2022-10-19T02:45:09.599Z,7.78
2022-10-19T02:48:19.543Z,8.02
2022-10-19T02:51:34.564Z,8.37
2022-10-19T02:54:39.152Z,8.25
2022-10-19T02:57:42.265Z,8.30
2022-10-19T03:00:45.519Z,8.13
2022-10-19T03:03:48.920Z,8.05
2022-10-19T03:06:52.098Z,8.70
2022-10-19T03:09:55.446Z,8.80
2022-10-19T03:12:59.384Z,8.35
2022-10-19T03:16:12.955Z,7.95
2022-10-19T03:19:16.191Z,7.47
2022-10-19T03:22:19.521Z,8.43
2022-10-19T03:25:22.624Z,7.22
2022-10-19T03:28:25.832Z,7.30
2022-10-19T03:31:29.163Z,7.20
2022-10-19T03:34:32.353Z,7.80
2022-10-19T03:37:35.805Z,7.57
2022-10-19T03:40:43.360Z,7.75
2022-10-19T03:43:46.560Z,6.97
2022-10-19T03:46:49.844Z,7.50
2022-10-19T03:49:53.094Z,7.90
2022-10-19T03:52:56.326Z,8.93
2022-10-19T03:56:08.271Z,8.07
2022-10-19T03:59:14.624Z,9.13
2022-10-19T04:02:17.783Z,9.18
2022-10-19T04:05:20.923Z,9.27
2022-10-19T04:08:24.088Z,9.47
2022-10-19T04:11:30.137Z,8.68
2022-10-19T04:14:39.597Z,8.52
2022-10-19T04:17:56.624Z,8.48
2022-10-19T04:21:04.718Z,8.55
2022-10-19T04:24:19.171Z,8.10
2022-10-19T04:27:22.252Z,8.20
2022-10-19T04:30:25.580Z,8.45
2022-10-19T04:33:28.752Z,8.45
2022-10-19T04:36:31.888Z,9.02
2022-10-19T04:39:39.340Z,8.57
2022-10-19T04:42:42.408Z,8.80
2022-10-19T04:45:45.493Z,7.85
2022-10-19T04:48:49.428Z,9.38
2022-10-19T04:51:52.524Z,8.50
2022-10-19T04:54:55.693Z,12.10
2022-10-19T04:57:58.807Z,7.05
2022-10-19T05:01:16.642Z,9.00
2022-10-19T05:04:19.809Z,6.40
2022-10-19T05:07:23.012Z,8.98
2022-10-19T05:10:28.376Z,7.63
2022-10-19T05:13:32.992Z,9.63
2022-10-19T05:16:36.084Z,5.25
2022-10-19T05:19:39.266Z,4.97
2022-10-19T05:22:42.508Z,5.05
2022-10-19T05:25:45.972Z,7.57
2022-10-19T05:28:57.999Z,7.77
2022-10-19T05:32:03.451Z,5.50
2022-10-19T05:35:06.833Z,5.55
2022-10-19T05:38:10.177Z,5.95
2022-10-19T05:41:14.059Z,6.60
2022-10-19T05:44:20.228Z,11.67
2022-10-19T05:47:26.205Z,6.53
2022-10-19T05:50:34.837Z,6.82
2022-10-19T05:53:41.510Z,6.05
2022-10-19T05:56:45.571Z,6.40
2022-10-19T05:59:49.429Z,6.37
2022-10-19T06:02:56.877Z,8.40
2022-10-19T06:06:07.824Z,11.25
2022-10-19T06:09:12.412Z,10.65
2022-10-19T06:12:16.370Z,11.67
2022-10-19T06:15:22.489Z,8.93
2022-10-19T06:18:26.165Z,12.65
2022-10-19T06:21:31.311Z,12.02
2022-10-19T06:24:34.820Z,10.90
2022-10-19T06:27:38.345Z,11.27
2022-10-19T06:30:42.299Z,12.03
2022-10-19T06:33:49.808Z,11.77
2022-10-19T06:36:53.188Z,11.15
2022-10-19T06:39:56.421Z,12.18
2022-10-19T06:42:59.586Z,11.23
2022-10-19T06:46:20.458Z,11.97
2022-10-19T06:49:23.737Z,10.52
2022-10-19T06:52:27.228Z,10.50
2022-10-19T06:55:33.289Z,10.82
2022-10-19T06:58:38.554Z,10.87
2022-10-19T07:01:41.809Z,10.97
2022-10-19T07:04:45.249Z,7.75
2022-10-19T07:07:48.762Z,9.02
2022-10-19T07:10:59.050Z,8.55
2022-10-19T07:14:05.449Z,8.93
2022-10-19T07:17:11.087Z,10.80
2022-10-19T07:20:17.631Z,10.35
2022-10-19T07:23:20.965Z,12.05
2022-10-19T07:26:27.935Z,10.10
2022-10-19T07:29:31.316Z,11.13
2022-10-19T07:32:34.566Z,10.63
2022-10-19T07:35:37.874Z,10.65
2022-10-19T07:38:41.841Z,10.95
2022-10-19T07:41:46.033Z,8.10
2022-10-19T07:44:49.618Z,11.57
2022-10-19T07:47:52.974Z,10.90
2022-10-19T07:50:56.859Z,10.48
2022-10-19T07:54:01.287Z,11.15
2022-10-19T07:57:04.556Z,9.35
2022-10-19T08:00:08.762Z,10.90
2022-10-19T08:06:38.899Z,11.48
2022-10-19T08:09:57.529Z,11.10
2022-10-19T08:13:00.950Z,11.32
2022-10-19T08:16:05.491Z,11.90
2022-10-19T08:19:11.683Z,11.87
2022-10-19T08:22:14.979Z,11.27
2022-10-19T08:25:19.869Z,11.00
2022-10-19T08:28:24.831Z,11.73
2022-10-19T08:31:31.167Z,11.33
2022-10-19T08:34:34.678Z,11.23
2022-10-19T08:37:45.087Z,11.63
2022-10-19T08:40:52.118Z,10.80
2022-10-19T08:44:16.703Z,11.98
2022-10-19T08:47:38.877Z,11.60
2022-10-19T08:50:47.095Z,11.17
2022-10-19T08:53:54.971Z,11.38
2022-10-19T08:57:19.144Z,10.77
2022-10-19T09:00:49.472Z,10.60
2022-10-19T09:03:59.038Z,9.47
2022-10-19T09:07:29.782Z,9.97
2022-10-19T09:10:38.982Z,10.30
2022-10-19T09:14:04.341Z,10.73
2022-10-19T09:17:14.829Z,9.63
2022-10-19T09:20:40.748Z,9.80
2022-10-19T09:24:01.891Z,9.47
2022-10-19T09:27:06.182Z,9.77
2022-10-19T09:30:31.221Z,10.30
2022-10-19T09:33:38.915Z,10.60
2022-10-19T09:36:53.621Z,10.33
2022-10-19T09:39:57.429Z,10.27
2022-10-19T09:43:08.917Z,10.15
2022-10-19T09:46:25.718Z,11.63
2022-10-19T09:49:51.427Z,11.05
2022-10-19T09:53:02.947Z,11.20
2022-10-19T09:56:17.283Z,10.87
2022-10-19T09:59:37.373Z,8.40
2022-10-19T10:02:51.458Z,10.13
2022-10-19T10:05:58.099Z,10.30
2022-10-19T10:09:16.940Z,9.60
2022-10-19T10:12:31.582Z,10.10
2022-10-19T10:15:47.903Z,9.65
2022-10-19T10:19:02.116Z,9.88
2022-10-19T10:22:23.761Z,10.52
2022-10-19T10:25:36.197Z,10.43
2022-10-19T10:28:51.431Z,9.83
2022-10-19T10:32:03.924Z,10.30
2022-10-19T10:35:19.729Z,10.23
2022-10-19T10:38:30.681Z,10.55
2022-10-19T10:41:48.977Z,10.30
2022-10-19T10:44:56.452Z,9.97
2022-10-19T10:48:19.722Z,10.20
2022-10-19T10:51:38.391Z,6.93
2022-10-19T10:54:56.821Z,11.23
2022-10-19T10:58:19.997Z,10.33
2022-10-19T11:01:28.471Z,9.90
2022-10-19T11:04:39.020Z,8.27
2022-10-19T11:07:56.586Z,9.45
2022-10-19T11:11:20.151Z,10.15
2022-10-19T11:14:36.662Z,10.57
2022-10-19T11:17:48.266Z,9.57
2022-10-19T11:21:06.900Z,10.50
2022-10-19T11:24:56.459Z,10.23
2022-10-19T11:28:30.120Z,9.77
2022-10-19T11:31:51.128Z,10.40
2022-10-19T11:35:38.135Z,9.37
2022-10-19T11:38:52.727Z,9.57
2022-10-19T11:42:12.907Z,9.77
2022-10-19T11:45:41.475Z,9.32
2022-10-19T11:49:08.876Z,9.00
2022-10-19T11:52:33.003Z,8.20
2022-10-19T11:55:42.818Z,8.18
2022-10-19T11:58:53.623Z,8.02
2022-10-19T12:02:23.573Z,8.35
2022-10-19T12:05:35.564Z,6.70
2022-10-19T12:08:48.302Z,7.23
2022-10-19T12:11:57.144Z,6.25
2022-10-19T12:15:11.966Z,6.60
2022-10-19T12:18:27.216Z,7.38
2022-10-19T12:21:43.500Z,5.90
2022-10-19T12:24:47.676Z,5.93
2022-10-19T12:27:51.629Z,5.85
2022-10-19T12:30:59.737Z,5.88
2022-10-19T12:34:09.119Z,5.75
2022-10-19T12:37:12.245Z,5.50
2022-10-19T12:40:46.444Z,5.20
2022-10-19T12:44:06.451Z,5.57
2022-10-19T12:47:15.700Z,5.07
2022-10-19T12:50:48.098Z,5.40
2022-10-19T12:53:51.384Z,5.03
2022-10-19T12:56:57.101Z,5.03
2022-10-19T13:00:24.512Z,6.10
2022-10-19T13:03:44.464Z,5.53
2022-10-19T13:06:51.837Z,5.10
2022-10-19T13:10:02.338Z,4.73
2022-10-19T13:13:05.671Z,4.90
2022-10-19T13:16:30.498Z,4.50
2022-10-19T13:19:36.430Z,4.10
2022-10-19T13:22:40.382Z,4.30
2022-10-19T13:25:44.264Z,4.80
2022-10-19T13:28:55.715Z,4.20
2022-10-19T13:32:32.632Z,3.63
2022-10-19T13:35:36.684Z,3.75
2022-10-19T13:38:48.316Z,3.55
2022-10-19T13:41:53.909Z,3.40
2022-10-19T13:44:57.180Z,3.50
2022-10-19T13:48:18.831Z,3.47
2022-10-19T13:51:37.365Z,3.17
2022-10-19T13:54:41.869Z,3.10
2022-10-19T13:57:54.721Z,3.80
2022-10-19T14:01:20.280Z,3.40
2022-10-19T14:04:56.063Z,3.30
2022-10-19T14:08:31.034Z,2.95
2022-10-19T14:11:40.845Z,3.28
2022-10-19T14:14:45.289Z,3.60
2022-10-19T14:17:48.586Z,3.30
2022-10-19T14:20:59.179Z,3.10
2022-10-19T14:24:02.434Z,2.45
2022-10-19T14:27:08.014Z,2.17
2022-10-19T14:30:35.582Z,2.73
2022-10-19T14:33:41.164Z,2.40
2022-10-19T14:36:47.848Z,2.42
2022-10-19T14:40:26.642Z,2.50
2022-10-19T14:43:33.720Z,2.30
2022-10-19T14:46:37.170Z,2.50
2022-10-19T14:49:40.275Z,2.10
2022-10-19T14:52:43.907Z,2.17
2022-10-19T14:55:48.084Z,2.00
2022-10-19T14:58:56.469Z,2.20
2022-10-19T15:02:03.933Z,2.07
2022-10-19T15:05:21.827Z,2.10
2022-10-19T15:08:32.275Z,1.90
2022-10-19T15:11:41.509Z,2.80
2022-10-19T15:14:45.898Z,2.40
2022-10-19T15:17:56.416Z,2.50
2022-10-19T15:21:17.702Z,2.50
2022-10-19T15:24:32.052Z,2.20
2022-10-19T15:27:40.289Z,2.72
2022-10-19T15:30:46.802Z,2.90
2022-10-19T15:33:55.594Z,3.37
2022-10-19T15:37:01.393Z,3.30
2022-10-19T15:40:22.879Z,2.90
2022-10-19T15:43:35.187Z,2.78
2022-10-19T15:46:47.378Z,3.03
2022-10-19T15:49:59.603Z,2.80
2022-10-19T15:53:06.121Z,3.40
2022-10-19T15:56:11.446Z,4.25
2022-10-19T15:59:19.869Z,3.97
2022-10-19T16:02:25.163Z,3.53
2022-10-19T16:05:29.194Z,3.13
2022-10-19T16:08:32.681Z,3.83
2022-10-19T16:11:36.509Z,3.92
2022-10-19T16:14:39.844Z,3.95
2022-10-19T16:17:46.322Z,4.10
2022-10-19T16:20:49.638Z,4.27
2022-10-19T16:23:55.966Z,4.97
2022-10-19T16:26:59.244Z,4.65
2022-10-19T16:30:03.361Z,4.75
2022-10-19T16:33:09.480Z,5.65
2022-10-19T16:36:13.225Z,6.40
2022-10-19T16:39:16.827Z,6.27
2022-10-19T16:42:19.965Z,6.50
2022-10-19T16:45:23.246Z,6.22
2022-10-19T16:48:27.178Z,5.90
2022-10-19T16:51:40.248Z,5.00
2022-10-19T16:54:43.345Z,4.60
2022-10-19T16:57:46.468Z,4.93
2022-10-19T17:00:49.728Z,3.90
2022-10-19T17:03:53.485Z,4.20
2022-10-19T17:06:57.612Z,3.40
2022-10-19T17:10:01.004Z,4.10
2022-10-19T17:13:04.374Z,3.60
2022-10-19T17:16:08.816Z,3.15
2022-10-19T17:19:12.723Z,3.08
2022-10-19T17:22:16.153Z,3.50
2022-10-19T17:25:19.259Z,2.50
2022-10-19T17:28:25.450Z,2.38
2022-10-19T17:31:31.806Z,2.50
2022-10-19T17:34:35.314Z,2.60
2022-10-19T17:37:38.783Z,2.43
2022-10-19T17:40:44.846Z,2.50
2022-10-19T17:43:51.695Z,2.40
2022-10-19T17:46:55.173Z,2.38
2022-10-19T17:49:58.461Z,2.92
2022-10-19T17:53:02.057Z,2.93
2022-10-19T17:56:07.104Z,3.03
2022-10-19T17:59:11.909Z,3.35
2022-10-19T18:02:15.273Z,2.50
2022-10-19T18:05:18.832Z,2.50
2022-10-19T18:08:22.383Z,2.70
2022-10-19T18:11:28.235Z,2.50
2022-10-19T18:14:38.127Z,2.67
2022-10-19T18:17:41.352Z,2.60
2022-10-19T18:20:45.640Z,2.50
2022-10-19T18:23:49.451Z,2.73
2022-10-19T18:26:53.290Z,2.60
2022-10-19T18:29:56.877Z,2.60
2022-10-19T18:33:00.460Z,2.58
2022-10-19T18:36:05.307Z,2.42
2022-10-19T18:39:10.009Z,2.27
2022-10-19T18:42:14.541Z,2.73
2022-10-19T18:45:18.079Z,2.90
2022-10-19T18:48:22.034Z,2.20
2022-10-19T18:51:25.707Z,2.70
2022-10-19T18:54:29.236Z,2.80
2022-10-19T18:57:33.377Z,2.80
2022-10-19T19:00:39.846Z,2.70
2022-10-19T19:03:49.571Z,2.78
2022-10-19T19:06:53.322Z,3.50
2022-10-19T19:09:56.737Z,4.67
2022-10-19T19:13:00.200Z,3.30
2022-10-19T19:16:03.813Z,2.83
2022-10-19T19:19:08.316Z,2.92
2022-10-19T19:22:11.673Z,3.25
2022-10-19T19:25:15.467Z,3.00
2022-10-19T19:28:18.844Z,3.30
2022-10-19T19:31:22.372Z,3.10
2022-10-19T19:34:25.665Z,3.08
2022-10-19T19:37:30.027Z,3.10
2022-10-19T19:40:38.044Z,2.97
2022-10-19T19:43:42.572Z,3.20
2022-10-19T19:46:46.288Z,2.88
2022-10-19T19:49:49.715Z,3.05
2022-10-19T19:52:54.306Z,2.92
2022-10-19T19:55:57.731Z,3.00
2022-10-19T19:59:03.648Z,3.10
2022-10-19T20:02:08.960Z,3.17
2022-10-19T20:05:12.413Z,3.10
2022-10-19T20:08:15.836Z,3.50
2022-10-19T20:11:19.454Z,3.70
2022-10-19T20:14:22.853Z,3.13
2022-10-19T20:17:26.253Z,3.50
2022-10-19T20:20:34.389Z,3.10
2022-10-19T20:23:38.579Z,3.70
2022-10-19T20:26:41.764Z,3.10
2022-10-19T20:29:46.339Z,2.87
2022-10-19T20:32:54.878Z,3.25
2022-10-19T20:36:09.965Z,2.90
2022-10-19T20:39:14.234Z,2.38
2022-10-19T20:42:18.804Z,3.13
2022-10-19T20:45:22.361Z,3.00
2022-10-19T20:48:25.835Z,2.90
2022-10-19T20:51:32.754Z,2.90
2022-10-19T20:54:36.023Z,2.92
2022-10-19T20:57:39.217Z,3.00
2022-10-19T21:00:43.032Z,3.37
2022-10-19T21:03:53.736Z,2.80
2022-10-19T21:06:57.284Z,2.50
2022-10-19T21:10:00.671Z,3.00
2022-10-19T21:13:03.833Z,2.80
2022-10-19T21:16:14.793Z,2.90
2022-10-19T21:19:22.166Z,2.90
2022-10-19T21:22:25.281Z,3.13
2022-10-19T21:25:30.337Z,3.13
2022-10-19T21:28:33.551Z,3.30
2022-10-19T21:31:38.613Z,3.20
2022-10-19T21:34:41.836Z,3.22
2022-10-19T21:37:44.976Z,3.08
2022-10-19T21:40:48.826Z,3.20
2022-10-19T21:43:52.026Z,3.73
2022-10-19T21:46:55.276Z,3.50
2022-10-19T21:49:58.416Z,3.78
2022-10-19T21:53:02.886Z,3.33
2022-10-19T21:56:06.328Z,3.55
2022-10-19T21:59:10.205Z,3.63
2022-10-19T22:02:13.339Z,3.45
2022-10-19T22:05:21.493Z,3.55
2022-10-19T22:08:24.699Z,4.43
2022-10-19T22:11:28.171Z,3.70
2022-10-19T22:14:31.267Z,4.10
2022-10-19T22:17:34.463Z,3.80
2022-10-19T22:20:40.040Z,4.20
2022-10-19T22:23:44.831Z,3.95
2022-10-19T22:26:50.950Z,4.38
2022-10-19T22:29:54.458Z,3.90
2022-10-19T22:32:57.551Z,4.30
2022-10-19T22:36:06.509Z,4.10
2022-10-19T22:39:10.256Z,4.30
2022-10-19T22:42:13.351Z,3.90
2022-10-19T22:45:16.584Z,4.20
2022-10-19T22:48:20.531Z,4.25
2022-10-19T22:51:23.660Z,3.88
2022-10-19T22:54:26.801Z,3.80
2022-10-19T22:57:29.956Z,4.57
2022-10-19T23:00:33.376Z,4.00
2022-10-19T23:03:37.626Z,4.22
2022-10-19T23:06:41.121Z,3.50
2022-10-19T23:09:44.184Z,3.38
2022-10-19T23:12:54.169Z,4.00
2022-10-19T23:15:57.280Z,3.40
2022-10-19T23:19:00.499Z,3.08
2022-10-19T23:22:03.700Z,3.13
2022-10-19T23:25:07.723Z,3.47
2022-10-19T23:28:10.842Z,3.50
2022-10-19T23:31:25.158Z,3.40
2022-10-19T23:34:28.305Z,3.40
2022-10-19T23:37:31.659Z,3.17
2022-10-19T23:40:37.935Z,3.60
2022-10-19T23:43:42.314Z,3.45
2022-10-19T23:46:45.453Z,3.43
2022-10-19T23:49:48.571Z,3.70
2022-10-19T23:52:51.623Z,3.05
2022-10-19T23:56:03.019Z,3.38
2022-10-19T23:59:09.565Z,3.53
